sensor_id;sensor_type;location;lat;lon;timestamp;temperature;humidity
22069;DHT22;13887;57.196;-2.100;2022-09-21T00:01:17;14.80;82.62
22069;DHT22;13887;57.196;-2.100;2022-09-21T00:03:44;14.79;82.74
22069;DHT22;13887;57.196;-2.100;2022-09-21T00:06:14;14.78;82.59
22069;DHT22;13887;57.196;-2.100;2022-09-21T00:08:42;14.77;82.52
22069;DHT22;13887;57.196;-2.100;2022-09-21T00:11:31;14.75;82.43
22069;DHT22;13887;57.196;-2.100;2022-09-21T00:14:02;14.72;82.42
22069;DHT22;13887;57.196;-2.100;2022-09-21T00:16:30;14.70;82.42
22069;DHT22;13887;57.196;-2.100;2022-09-21T00:18:58;14.68;82.26
22069;DHT22;13887;57.196;-2.100;2022-09-21T00:21:25;14.67;82.44
22069;DHT22;13887;57.196;-2.100;2022-09-21T00:23:53;14.69;82.42
22069;DHT22;13887;57.196;-2.100;2022-09-21T00:26:23;14.67;82.40
22069;DHT22;13887;57.196;-2.100;2022-09-21T00:28:55;14.70;82.23
22069;DHT22;13887;57.196;-2.100;2022-09-21T00:31:23;14.70;82.28
22069;DHT22;13887;57.196;-2.100;2022-09-21T00:33:51;14.69;82.21
22069;DHT22;13887;57.196;-2.100;2022-09-21T00:36:20;14.67;82.30
22069;DHT22;13887;57.196;-2.100;2022-09-21T00:38:52;14.64;82.17
22069;DHT22;13887;57.196;-2.100;2022-09-21T00:41:20;14.62;82.26
22069;DHT22;13887;57.196;-2.100;2022-09-21T00:44:23;14.64;82.34
22069;DHT22;13887;57.196;-2.100;2022-09-21T00:46:52;14.65;82.32
22069;DHT22;13887;57.196;-2.100;2022-09-21T00:49:20;14.65;82.22
22069;DHT22;13887;57.196;-2.100;2022-09-21T00:51:48;14.63;82.16
22069;DHT22;13887;57.196;-2.100;2022-09-21T00:54:27;14.60;82.23
22069;DHT22;13887;57.196;-2.100;2022-09-21T00:56:56;14.60;82.18
22069;DHT22;13887;57.196;-2.100;2022-09-21T00:59:29;14.59;82.32
22069;DHT22;13887;57.196;-2.100;2022-09-21T01:01:57;14.60;82.14
22069;DHT22;13887;57.196;-2.100;2022-09-21T01:04:24;14.59;82.18
22069;DHT22;13887;57.196;-2.100;2022-09-21T01:06:55;14.57;82.30
22069;DHT22;13887;57.196;-2.100;2022-09-21T01:09:23;14.56;82.30
22069;DHT22;13887;57.196;-2.100;2022-09-21T01:15:10;14.57;81.91
22069;DHT22;13887;57.196;-2.100;2022-09-21T01:31:21;14.53;81.84
22069;DHT22;13887;57.196;-2.100;2022-09-21T01:33:52;14.50;81.79
22069;DHT22;13887;57.196;-2.100;2022-09-21T01:36:24;14.47;81.90
22069;DHT22;13887;57.196;-2.100;2022-09-21T01:38:57;14.49;81.81
22069;DHT22;13887;57.196;-2.100;2022-09-21T01:41:27;14.48;81.81
22069;DHT22;13887;57.196;-2.100;2022-09-21T01:43:58;14.47;81.57
22069;DHT22;13887;57.196;-2.100;2022-09-21T01:46:31;14.44;81.81
22069;DHT22;13887;57.196;-2.100;2022-09-21T01:49:02;14.43;81.78
22069;DHT22;13887;57.196;-2.100;2022-09-21T01:51:32;14.45;81.70
22069;DHT22;13887;57.196;-2.100;2022-09-21T01:54:11;14.47;81.72
22069;DHT22;13887;57.196;-2.100;2022-09-21T01:56:43;14.45;81.68
22069;DHT22;13887;57.196;-2.100;2022-09-21T01:59:25;14.45;81.70
22069;DHT22;13887;57.196;-2.100;2022-09-21T02:02:00;14.44;81.75
22069;DHT22;13887;57.196;-2.100;2022-09-21T02:04:27;14.43;81.62
22069;DHT22;13887;57.196;-2.100;2022-09-21T02:06:54;14.42;81.80
22069;DHT22;13887;57.196;-2.100;2022-09-21T02:09:23;14.44;81.70
22069;DHT22;13887;57.196;-2.100;2022-09-21T02:11:50;14.47;81.49
22069;DHT22;13887;57.196;-2.100;2022-09-21T02:14:20;14.48;81.35
22069;DHT22;13887;57.196;-2.100;2022-09-21T02:17:00;14.45;81.41
22069;DHT22;13887;57.196;-2.100;2022-09-21T02:19:39;14.43;81.36
22069;DHT22;13887;57.196;-2.100;2022-09-21T02:24:57;14.41;81.41
22069;DHT22;13887;57.196;-2.100;2022-09-21T02:27:48;14.43;81.27
22069;DHT22;13887;57.196;-2.100;2022-09-21T02:30:24;14.41;81.14
22069;DHT22;13887;57.196;-2.100;2022-09-21T02:33:10;14.40;81.25
22069;DHT22;13887;57.196;-2.100;2022-09-21T02:38:19;14.38;81.23
22069;DHT22;13887;57.196;-2.100;2022-09-21T02:40:51;14.37;81.25
22069;DHT22;13887;57.196;-2.100;2022-09-21T02:43:26;14.37;81.20
22069;DHT22;13887;57.196;-2.100;2022-09-21T02:46:03;14.38;81.14
22069;DHT22;13887;57.196;-2.100;2022-09-21T02:48:58;14.36;81.15
22069;DHT22;13887;57.196;-2.100;2022-09-21T02:51:35;14.35;81.07
22069;DHT22;13887;57.196;-2.100;2022-09-21T02:54:05;14.34;81.14
22069;DHT22;13887;57.196;-2.100;2022-09-21T02:56:33;14.33;81.28
22069;DHT22;13887;57.196;-2.100;2022-09-21T02:59:03;14.27;81.22
22069;DHT22;13887;57.196;-2.100;2022-09-21T03:01:32;14.26;81.28
22069;DHT22;13887;57.196;-2.100;2022-09-21T03:03:59;14.24;81.35
22069;DHT22;13887;57.196;-2.100;2022-09-21T03:06:26;14.23;81.40
22069;DHT22;13887;57.196;-2.100;2022-09-21T03:08:53;14.20;81.33
22069;DHT22;13887;57.196;-2.100;2022-09-21T03:11:20;14.19;81.34
22069;DHT22;13887;57.196;-2.100;2022-09-21T03:13:47;14.20;81.25
22069;DHT22;13887;57.196;-2.100;2022-09-21T03:16:14;14.15;81.35
22069;DHT22;13887;57.196;-2.100;2022-09-21T03:18:42;14.19;81.33
22069;DHT22;13887;57.196;-2.100;2022-09-21T03:21:10;14.19;81.27
22069;DHT22;13887;57.196;-2.100;2022-09-21T03:23:38;14.18;81.14
22069;DHT22;13887;57.196;-2.100;2022-09-21T03:26:05;14.14;81.25
22069;DHT22;13887;57.196;-2.100;2022-09-21T03:28:32;14.13;81.22
22069;DHT22;13887;57.196;-2.100;2022-09-21T03:30:59;14.08;81.29
22069;DHT22;13887;57.196;-2.100;2022-09-21T03:33:26;14.07;81.35
22069;DHT22;13887;57.196;-2.100;2022-09-21T03:35:53;14.06;81.30
22069;DHT22;13887;57.196;-2.100;2022-09-21T03:38:20;14.06;81.29
22069;DHT22;13887;57.196;-2.100;2022-09-21T03:40:48;14.05;81.27
22069;DHT22;13887;57.196;-2.100;2022-09-21T03:43:16;14.07;81.24
22069;DHT22;13887;57.196;-2.100;2022-09-21T03:45:43;14.08;81.28
22069;DHT22;13887;57.196;-2.100;2022-09-21T03:48:11;14.09;81.14
22069;DHT22;13887;57.196;-2.100;2022-09-21T03:50:38;14.09;80.91
22069;DHT22;13887;57.196;-2.100;2022-09-21T03:53:06;14.07;80.99
22069;DHT22;13887;57.196;-2.100;2022-09-21T03:55:33;14.07;80.94
22069;DHT22;13887;57.196;-2.100;2022-09-21T03:58:01;14.08;80.96
22069;DHT22;13887;57.196;-2.100;2022-09-21T04:00:28;14.05;80.97
22069;DHT22;13887;57.196;-2.100;2022-09-21T04:02:56;14.03;81.02
22069;DHT22;13887;57.196;-2.100;2022-09-21T04:05:22;14.00;80.96
22069;DHT22;13887;57.196;-2.100;2022-09-21T04:07:49;14.03;80.89
22069;DHT22;13887;57.196;-2.100;2022-09-21T04:10:18;14.04;80.92
22069;DHT22;13887;57.196;-2.100;2022-09-21T04:12:47;14.03;80.88
22069;DHT22;13887;57.196;-2.100;2022-09-21T04:15:16;14.03;80.75
22069;DHT22;13887;57.196;-2.100;2022-09-21T04:17:45;14.04;80.81
22069;DHT22;13887;57.196;-2.100;2022-09-21T04:20:12;14.00;80.86
22069;DHT22;13887;57.196;-2.100;2022-09-21T04:22:39;13.98;80.88
22069;DHT22;13887;57.196;-2.100;2022-09-21T04:25:10;13.99;80.86
22069;DHT22;13887;57.196;-2.100;2022-09-21T04:27:38;14.00;80.69
22069;DHT22;13887;57.196;-2.100;2022-09-21T04:30:05;14.00;80.65
22069;DHT22;13887;57.196;-2.100;2022-09-21T04:32:32;13.99;80.74
22069;DHT22;13887;57.196;-2.100;2022-09-21T04:34:59;13.98;80.78
22069;DHT22;13887;57.196;-2.100;2022-09-21T04:37:26;13.98;80.82
22069;DHT22;13887;57.196;-2.100;2022-09-21T04:39:53;13.97;80.74
22069;DHT22;13887;57.196;-2.100;2022-09-21T04:42:20;13.96;80.79
22069;DHT22;13887;57.196;-2.100;2022-09-21T04:44:47;13.96;80.70
22069;DHT22;13887;57.196;-2.100;2022-09-21T04:47:13;13.97;80.65
22069;DHT22;13887;57.196;-2.100;2022-09-21T04:49:40;13.92;80.72
22069;DHT22;13887;57.196;-2.100;2022-09-21T04:52:07;13.88;80.74
22069;DHT22;13887;57.196;-2.100;2022-09-21T04:54:34;13.85;80.78
22069;DHT22;13887;57.196;-2.100;2022-09-21T04:57:01;13.84;80.79
22069;DHT22;13887;57.196;-2.100;2022-09-21T04:59:28;13.83;80.76
22069;DHT22;13887;57.196;-2.100;2022-09-21T05:01:54;13.85;80.70
22069;DHT22;13887;57.196;-2.100;2022-09-21T05:04:21;13.81;80.72
22069;DHT22;13887;57.196;-2.100;2022-09-21T05:06:48;13.82;80.78
22069;DHT22;13887;57.196;-2.100;2022-09-21T05:09:15;13.84;80.72
22069;DHT22;13887;57.196;-2.100;2022-09-21T05:12:00;13.86;80.61
22069;DHT22;13887;57.196;-2.100;2022-09-21T05:14:28;13.88;80.55
22069;DHT22;13887;57.196;-2.100;2022-09-21T05:16:55;13.84;80.56
22069;DHT22;13887;57.196;-2.100;2022-09-21T05:19:22;13.84;80.56
22069;DHT22;13887;57.196;-2.100;2022-09-21T05:21:49;13.84;80.59
22069;DHT22;13887;57.196;-2.100;2022-09-21T05:24:15;13.82;80.58
22069;DHT22;13887;57.196;-2.100;2022-09-21T05:26:42;13.79;80.69
22069;DHT22;13887;57.196;-2.100;2022-09-21T05:29:09;13.76;80.71
22069;DHT22;13887;57.196;-2.100;2022-09-21T05:31:57;13.76;80.77
22069;DHT22;13887;57.196;-2.100;2022-09-21T05:37:09;13.77;80.62
22069;DHT22;13887;57.196;-2.100;2022-09-21T05:39:37;13.77;80.69
22069;DHT22;13887;57.196;-2.100;2022-09-21T05:42:04;13.75;80.72
22069;DHT22;13887;57.196;-2.100;2022-09-21T05:44:32;13.75;80.68
22069;DHT22;13887;57.196;-2.100;2022-09-21T05:47:38;13.78;80.60
22069;DHT22;13887;57.196;-2.100;2022-09-21T05:52:44;13.79;80.43
22069;DHT22;13887;57.196;-2.100;2022-09-21T05:58:09;13.82;80.39
22069;DHT22;13887;57.196;-2.100;2022-09-21T06:05:55;13.82;80.30
22069;DHT22;13887;57.196;-2.100;2022-09-21T06:08:22;13.81;80.41
22069;DHT22;13887;57.196;-2.100;2022-09-21T06:10:50;13.82;80.36
22069;DHT22;13887;57.196;-2.100;2022-09-21T06:13:17;13.83;80.36
22069;DHT22;13887;57.196;-2.100;2022-09-21T06:15:44;13.82;80.30
22069;DHT22;13887;57.196;-2.100;2022-09-21T06:18:11;13.82;80.31
22069;DHT22;13887;57.196;-2.100;2022-09-21T06:20:44;13.81;80.45
22069;DHT22;13887;57.196;-2.100;2022-09-21T06:23:12;13.80;80.46
22069;DHT22;13887;57.196;-2.100;2022-09-21T06:25:39;13.80;80.40
22069;DHT22;13887;57.196;-2.100;2022-09-21T06:28:11;13.80;80.45
22069;DHT22;13887;57.196;-2.100;2022-09-21T06:30:38;13.78;80.62
22069;DHT22;13887;57.196;-2.100;2022-09-21T06:33:08;13.78;80.64
22069;DHT22;13887;57.196;-2.100;2022-09-21T06:35:35;13.64;81.58
22069;DHT22;13887;57.196;-2.100;2022-09-21T06:38:05;13.65;81.68
22069;DHT22;13887;57.196;-2.100;2022-09-21T06:40:34;13.69;81.43
22069;DHT22;13887;57.196;-2.100;2022-09-21T06:43:02;13.71;81.26
22069;DHT22;13887;57.196;-2.100;2022-09-21T06:45:31;13.75;81.07
22069;DHT22;13887;57.196;-2.100;2022-09-21T06:47:58;13.74;80.98
22069;DHT22;13887;57.196;-2.100;2022-09-21T06:50:25;13.74;80.91
22069;DHT22;13887;57.196;-2.100;2022-09-21T06:52:53;13.75;81.04
22069;DHT22;13887;57.196;-2.100;2022-09-21T06:55:20;13.75;80.91
22069;DHT22;13887;57.196;-2.100;2022-09-21T06:57:46;13.74;80.92
22069;DHT22;13887;57.196;-2.100;2022-09-21T07:00:13;13.76;80.78
22069;DHT22;13887;57.196;-2.100;2022-09-21T07:02:44;13.76;80.78
22069;DHT22;13887;57.196;-2.100;2022-09-21T07:05:11;13.77;80.77
22069;DHT22;13887;57.196;-2.100;2022-09-21T07:07:38;13.80;80.62
22069;DHT22;13887;57.196;-2.100;2022-09-21T07:10:06;13.81;80.56
22069;DHT22;13887;57.196;-2.100;2022-09-21T07:12:40;13.82;80.58
22069;DHT22;13887;57.196;-2.100;2022-09-21T07:15:08;13.81;80.64
22069;DHT22;13887;57.196;-2.100;2022-09-21T07:17:38;13.84;80.65
22069;DHT22;13887;57.196;-2.100;2022-09-21T07:20:06;13.81;80.65
22069;DHT22;13887;57.196;-2.100;2022-09-21T07:22:34;13.83;80.57
22069;DHT22;13887;57.196;-2.100;2022-09-21T07:25:03;13.81;80.66
22069;DHT22;13887;57.196;-2.100;2022-09-21T07:27:32;13.81;80.62
22069;DHT22;13887;57.196;-2.100;2022-09-21T07:29:59;13.82;80.62
22069;DHT22;13887;57.196;-2.100;2022-09-21T07:32:26;13.82;80.75
22069;DHT22;13887;57.196;-2.100;2022-09-21T07:34:52;13.82;80.62
22069;DHT22;13887;57.196;-2.100;2022-09-21T07:37:23;13.86;80.59
22069;DHT22;13887;57.196;-2.100;2022-09-21T07:39:51;13.88;80.49
22069;DHT22;13887;57.196;-2.100;2022-09-21T07:42:19;13.88;80.69
22069;DHT22;13887;57.196;-2.100;2022-09-21T07:44:48;13.86;80.67
22069;DHT22;13887;57.196;-2.100;2022-09-21T07:47:16;13.88;80.40
22069;DHT22;13887;57.196;-2.100;2022-09-21T07:49:43;13.94;80.19
22069;DHT22;13887;57.196;-2.100;2022-09-21T07:52:12;13.93;80.18
22069;DHT22;13887;57.196;-2.100;2022-09-21T07:54:41;13.92;80.28
22069;DHT22;13887;57.196;-2.100;2022-09-21T07:57:07;13.93;80.12
22069;DHT22;13887;57.196;-2.100;2022-09-21T07:59:53;13.93;80.27
22069;DHT22;13887;57.196;-2.100;2022-09-21T08:02:24;13.97;80.04
22069;DHT22;13887;57.196;-2.100;2022-09-21T08:04:51;13.99;79.93
22069;DHT22;13887;57.196;-2.100;2022-09-21T08:07:19;13.93;80.36
22069;DHT22;13887;57.196;-2.100;2022-09-21T08:09:46;14.01;80.01
22069;DHT22;13887;57.196;-2.100;2022-09-21T08:12:15;14.00;80.13
22069;DHT22;13887;57.196;-2.100;2022-09-21T08:14:44;14.04;79.93
22069;DHT22;13887;57.196;-2.100;2022-09-21T08:17:11;13.99;80.09
22069;DHT22;13887;57.196;-2.100;2022-09-21T08:19:38;14.05;79.88
22069;DHT22;13887;57.196;-2.100;2022-09-21T08:22:05;14.03;79.98
22069;DHT22;13887;57.196;-2.100;2022-09-21T08:24:32;14.01;80.20
22069;DHT22;13887;57.196;-2.100;2022-09-21T08:27:00;14.03;80.20
22069;DHT22;13887;57.196;-2.100;2022-09-21T08:29:27;14.03;80.30
22069;DHT22;13887;57.196;-2.100;2022-09-21T08:31:56;14.00;80.36
22069;DHT22;13887;57.196;-2.100;2022-09-21T08:34:23;14.01;80.43
22069;DHT22;13887;57.196;-2.100;2022-09-21T08:36:51;14.04;80.42
22069;DHT22;13887;57.196;-2.100;2022-09-21T08:39:21;14.08;80.43
22069;DHT22;13887;57.196;-2.100;2022-09-21T08:42:08;14.08;80.62
22069;DHT22;13887;57.196;-2.100;2022-09-21T08:44:44;14.09;80.69
22069;DHT22;13887;57.196;-2.100;2022-09-21T08:47:41;14.11;80.78
22069;DHT22;13887;57.196;-2.100;2022-09-21T08:52:51;14.14;80.77
22069;DHT22;13887;57.196;-2.100;2022-09-21T08:55:22;14.21;80.62
22069;DHT22;13887;57.196;-2.100;2022-09-21T08:57:50;14.20;80.60
22069;DHT22;13887;57.196;-2.100;2022-09-21T09:00:18;14.23;80.59
22069;DHT22;13887;57.196;-2.100;2022-09-21T09:03:09;14.24;80.59
22069;DHT22;13887;57.196;-2.100;2022-09-21T09:16:44;14.33;80.79
22069;DHT22;13887;57.196;-2.100;2022-09-21T09:22:03;14.34;80.78
22069;DHT22;13887;57.196;-2.100;2022-09-21T09:24:39;14.34;80.87
22069;DHT22;13887;57.196;-2.100;2022-09-21T09:27:18;14.33;80.88
22069;DHT22;13887;57.196;-2.100;2022-09-21T09:35:28;14.37;80.82
22069;DHT22;13887;57.196;-2.100;2022-09-21T09:38:10;14.40;80.92
22069;DHT22;13887;57.196;-2.100;2022-09-21T09:51:19;14.44;81.27
22069;DHT22;13887;57.196;-2.100;2022-09-21T09:53:46;14.48;81.59
22069;DHT22;13887;57.196;-2.100;2022-09-21T09:56:13;14.51;81.46
22069;DHT22;13887;57.196;-2.100;2022-09-21T09:58:48;14.52;81.66
22069;DHT22;13887;57.196;-2.100;2022-09-21T10:01:41;14.50;81.68
22069;DHT22;13887;57.196;-2.100;2022-09-21T10:04:17;14.53;82.01
22069;DHT22;13887;57.196;-2.100;2022-09-21T10:06:44;14.53;82.30
22069;DHT22;13887;57.196;-2.100;2022-09-21T10:09:30;14.55;82.24
22069;DHT22;13887;57.196;-2.100;2022-09-21T10:12:18;14.54;82.39
22069;DHT22;13887;57.196;-2.100;2022-09-21T10:14:51;14.55;82.47
22069;DHT22;13887;57.196;-2.100;2022-09-21T10:17:19;14.54;82.64
22069;DHT22;13887;57.196;-2.100;2022-09-21T10:19:47;14.54;82.52
22069;DHT22;13887;57.196;-2.100;2022-09-21T10:22:19;14.55;82.71
22069;DHT22;13887;57.196;-2.100;2022-09-21T10:24:50;14.56;82.70
22069;DHT22;13887;57.196;-2.100;2022-09-21T10:27:24;14.58;82.79
22069;DHT22;13887;57.196;-2.100;2022-09-21T10:29:51;14.60;83.14
22069;DHT22;13887;57.196;-2.100;2022-09-21T10:32:21;14.64;83.17
22069;DHT22;13887;57.196;-2.100;2022-09-21T10:37:32;14.67;83.32
22069;DHT22;13887;57.196;-2.100;2022-09-21T10:40:00;14.67;83.72
22069;DHT22;13887;57.196;-2.100;2022-09-21T10:42:35;14.67;83.53
22069;DHT22;13887;57.196;-2.100;2022-09-21T10:45:27;14.68;83.50
22069;DHT22;13887;57.196;-2.100;2022-09-21T10:48:08;14.70;84.11
22069;DHT22;13887;57.196;-2.100;2022-09-21T10:50:39;14.73;83.72
22069;DHT22;13887;57.196;-2.100;2022-09-21T10:56:06;14.78;83.69
22069;DHT22;13887;57.196;-2.100;2022-09-21T11:01:52;14.82;84.19
22069;DHT22;13887;57.196;-2.100;2022-09-21T11:07:20;14.83;84.61
22069;DHT22;13887;57.196;-2.100;2022-09-21T11:12:35;14.89;85.08
22069;DHT22;13887;57.196;-2.100;2022-09-21T11:21:12;14.91;85.24
22069;DHT22;13887;57.196;-2.100;2022-09-21T11:24:39;14.91;84.97
22069;DHT22;13887;57.196;-2.100;2022-09-21T11:29:35;14.88;84.79
22069;DHT22;13887;57.196;-2.100;2022-09-21T11:46:34;15.01;85.12
22069;DHT22;13887;57.196;-2.100;2022-09-21T12:00:20;15.15;85.34
22069;DHT22;13887;57.196;-2.100;2022-09-21T12:08:48;15.14;86.00
22069;DHT22;13887;57.196;-2.100;2022-09-21T12:22:10;15.21;87.00
22069;DHT22;13887;57.196;-2.100;2022-09-21T12:24:48;15.24;86.50
22069;DHT22;13887;57.196;-2.100;2022-09-21T12:29:49;15.23;86.68
22069;DHT22;13887;57.196;-2.100;2022-09-21T12:34:50;15.26;86.52
22069;DHT22;13887;57.196;-2.100;2022-09-21T12:37:37;15.28;87.48
22069;DHT22;13887;57.196;-2.100;2022-09-21T12:42:45;15.30;86.93
22069;DHT22;13887;57.196;-2.100;2022-09-21T12:45:28;15.32;87.35
22069;DHT22;13887;57.196;-2.100;2022-09-21T12:48:21;15.32;87.00
22069;DHT22;13887;57.196;-2.100;2022-09-21T12:51:18;15.34;87.85
22069;DHT22;13887;57.196;-2.100;2022-09-21T12:53:54;15.37;87.14
22069;DHT22;13887;57.196;-2.100;2022-09-21T12:56:33;15.34;87.77
22069;DHT22;13887;57.196;-2.100;2022-09-21T12:59:42;15.36;87.25
22069;DHT22;13887;57.196;-2.100;2022-09-21T13:13:14;15.44;88.45
22069;DHT22;13887;57.196;-2.100;2022-09-21T13:15:46;15.43;87.86
22069;DHT22;13887;57.196;-2.100;2022-09-21T13:18:37;15.43;88.31
22069;DHT22;13887;57.196;-2.100;2022-09-21T13:21:19;15.43;87.05
22069;DHT22;13887;57.196;-2.100;2022-09-21T13:23:56;15.44;86.43
22069;DHT22;13887;57.196;-2.100;2022-09-21T13:26:50;15.47;86.93
22069;DHT22;13887;57.196;-2.100;2022-09-21T13:31:57;15.51;86.74
22069;DHT22;13887;57.196;-2.100;2022-09-21T13:47:39;15.62;88.86
22069;DHT22;13887;57.196;-2.100;2022-09-21T13:52:50;15.63;88.35
22069;DHT22;13887;57.196;-2.100;2022-09-21T13:57:52;15.67;87.80
22069;DHT22;13887;57.196;-2.100;2022-09-21T14:08:23;15.73;87.86
22069;DHT22;13887;57.196;-2.100;2022-09-21T14:10:59;15.75;88.04
22069;DHT22;13887;57.196;-2.100;2022-09-21T14:13:32;15.80;87.09
22069;DHT22;13887;57.196;-2.100;2022-09-21T14:18:55;15.85;87.38
22069;DHT22;13887;57.196;-2.100;2022-09-21T14:21:22;15.88;87.86
22069;DHT22;13887;57.196;-2.100;2022-09-21T14:29:27;15.87;88.04
22069;DHT22;13887;57.196;-2.100;2022-09-21T14:31:57;15.87;87.32
22069;DHT22;13887;57.196;-2.100;2022-09-21T14:34:31;15.87;87.73
22069;DHT22;13887;57.196;-2.100;2022-09-21T14:37:12;15.86;87.36
22069;DHT22;13887;57.196;-2.100;2022-09-21T14:39:43;15.84;87.42
22069;DHT22;13887;57.196;-2.100;2022-09-21T14:42:18;15.82;86.12
22069;DHT22;13887;57.196;-2.100;2022-09-21T14:44:49;15.84;86.86
22069;DHT22;13887;57.196;-2.100;2022-09-21T14:53:06;15.86;86.56
22069;DHT22;13887;57.196;-2.100;2022-09-21T14:58:32;15.93;85.93
22069;DHT22;13887;57.196;-2.100;2022-09-21T15:16:29;15.99;87.68
22069;DHT22;13887;57.196;-2.100;2022-09-21T15:19:22;15.98;86.60
22069;DHT22;13887;57.196;-2.100;2022-09-21T15:24:54;15.99;85.65
22069;DHT22;13887;57.196;-2.100;2022-09-21T15:27:27;15.98;85.32
22069;DHT22;13887;57.196;-2.100;2022-09-21T15:30:01;15.97;85.26
22069;DHT22;13887;57.196;-2.100;2022-09-21T15:32:41;15.97;85.18
22069;DHT22;13887;57.196;-2.100;2022-09-21T15:35:19;15.96;85.75
22069;DHT22;13887;57.196;-2.100;2022-09-21T15:37:47;15.99;85.06
22069;DHT22;13887;57.196;-2.100;2022-09-21T15:40:25;16.01;86.03
22069;DHT22;13887;57.196;-2.100;2022-09-21T15:53:40;16.10;84.97
22069;DHT22;13887;57.196;-2.100;2022-09-21T15:56:18;16.08;85.43
22069;DHT22;13887;57.196;-2.100;2022-09-21T15:58:46;16.06;85.06
22069;DHT22;13887;57.196;-2.100;2022-09-21T16:01:18;16.06;86.31
22069;DHT22;13887;57.196;-2.100;2022-09-21T16:03:47;16.05;85.35
22069;DHT22;13887;57.196;-2.100;2022-09-21T16:06:27;16.04;85.20
22069;DHT22;13887;57.196;-2.100;2022-09-21T16:08:54;16.02;85.45
22069;DHT22;13887;57.196;-2.100;2022-09-21T16:13:59;16.10;83.13
22069;DHT22;13887;57.196;-2.100;2022-09-21T16:22:37;16.01;83.81
22069;DHT22;13887;57.196;-2.100;2022-09-21T16:28:04;16.00;83.13
22069;DHT22;13887;57.196;-2.100;2022-09-21T16:30:48;16.00;82.10
22069;DHT22;13887;57.196;-2.100;2022-09-21T16:38:43;16.00;82.78
22069;DHT22;13887;57.196;-2.100;2022-09-21T16:41:10;16.00;82.72
22069;DHT22;13887;57.196;-2.100;2022-09-21T16:43:37;16.01;82.80
22069;DHT22;13887;57.196;-2.100;2022-09-21T16:46:09;16.01;82.43
22069;DHT22;13887;57.196;-2.100;2022-09-21T16:48:35;16.01;82.48
22069;DHT22;13887;57.196;-2.100;2022-09-21T16:51:04;16.01;82.84
22069;DHT22;13887;57.196;-2.100;2022-09-21T16:53:31;16.02;83.66
22069;DHT22;13887;57.196;-2.100;2022-09-21T16:55:58;16.01;82.73
22069;DHT22;13887;57.196;-2.100;2022-09-21T16:58:24;15.99;82.62
22069;DHT22;13887;57.196;-2.100;2022-09-21T17:00:53;15.98;82.98
22069;DHT22;13887;57.196;-2.100;2022-09-21T17:03:21;15.97;82.66
22069;DHT22;13887;57.196;-2.100;2022-09-21T17:05:48;15.99;82.86
22069;DHT22;13887;57.196;-2.100;2022-09-21T17:08:15;15.97;83.22
22069;DHT22;13887;57.196;-2.100;2022-09-21T17:10:43;15.97;82.74
22069;DHT22;13887;57.196;-2.100;2022-09-21T17:13:11;15.93;82.54
22069;DHT22;13887;57.196;-2.100;2022-09-21T17:15:43;15.92;82.55
22069;DHT22;13887;57.196;-2.100;2022-09-21T17:18:12;15.93;82.62
22069;DHT22;13887;57.196;-2.100;2022-09-21T17:20:41;15.93;82.80
22069;DHT22;13887;57.196;-2.100;2022-09-21T17:23:09;15.97;82.74
22069;DHT22;13887;57.196;-2.100;2022-09-21T17:25:36;15.96;82.17
22069;DHT22;13887;57.196;-2.100;2022-09-21T17:28:11;15.93;81.80
22069;DHT22;13887;57.196;-2.100;2022-09-21T17:30:39;15.96;81.75
22069;DHT22;13887;57.196;-2.100;2022-09-21T17:33:09;15.95;81.62
22069;DHT22;13887;57.196;-2.100;2022-09-21T17:35:39;15.93;81.40
22069;DHT22;13887;57.196;-2.100;2022-09-21T17:38:06;15.92;81.62
22069;DHT22;13887;57.196;-2.100;2022-09-21T17:40:40;15.92;81.14
22069;DHT22;13887;57.196;-2.100;2022-09-21T17:43:44;15.92;81.53
22069;DHT22;13887;57.196;-2.100;2022-09-21T17:49:09;15.92;80.85
22069;DHT22;13887;57.196;-2.100;2022-09-21T17:51:37;15.91;80.62
22069;DHT22;13887;57.196;-2.100;2022-09-21T17:54:23;15.89;80.72
22069;DHT22;13887;57.196;-2.100;2022-09-21T17:56:56;15.87;80.54
22069;DHT22;13887;57.196;-2.100;2022-09-21T17:59:34;15.87;80.49
22069;DHT22;13887;57.196;-2.100;2022-09-21T18:02:21;15.87;79.95
22069;DHT22;13887;57.196;-2.100;2022-09-21T18:04:52;15.87;79.86
22069;DHT22;13887;57.196;-2.100;2022-09-21T18:07:22;15.86;79.80
22069;DHT22;13887;57.196;-2.100;2022-09-21T18:09:50;15.86;80.30
22069;DHT22;13887;57.196;-2.100;2022-09-21T18:18:44;15.86;79.52
22069;DHT22;13887;57.196;-2.100;2022-09-21T18:21:17;15.85;79.54
22069;DHT22;13887;57.196;-2.100;2022-09-21T18:26:47;15.80;79.35
22069;DHT22;13887;57.196;-2.100;2022-09-21T18:38:10;15.78;79.51
22069;DHT22;13887;57.196;-2.100;2022-09-21T18:46:16;15.78;78.75
22069;DHT22;13887;57.196;-2.100;2022-09-21T18:49:58;15.81;78.50
22069;DHT22;13887;57.196;-2.100;2022-09-21T18:52:04;15.80;78.90
22069;DHT22;13887;57.196;-2.100;2022-09-21T18:54:35;15.78;79.06
22069;DHT22;13887;57.196;-2.100;2022-09-21T18:57:10;15.77;78.70
22069;DHT22;13887;57.196;-2.100;2022-09-21T18:59:39;15.75;78.74
22069;DHT22;13887;57.196;-2.100;2022-09-21T19:02:14;15.75;78.62
22069;DHT22;13887;57.196;-2.100;2022-09-21T19:04:43;15.75;79.21
22069;DHT22;13887;57.196;-2.100;2022-09-21T19:07:30;15.74;78.48
22069;DHT22;13887;57.196;-2.100;2022-09-21T19:10:18;15.75;78.43
22069;DHT22;13887;57.196;-2.100;2022-09-21T19:12:56;15.76;78.56
22069;DHT22;13887;57.196;-2.100;2022-09-21T19:18:43;15.74;78.61
22069;DHT22;13887;57.196;-2.100;2022-09-21T19:26:49;15.72;78.55
22069;DHT22;13887;57.196;-2.100;2022-09-21T19:29:28;15.72;78.54
22069;DHT22;13887;57.196;-2.100;2022-09-21T19:31:57;15.70;78.64
22069;DHT22;13887;57.196;-2.100;2022-09-21T19:34:24;15.69;78.85
22069;DHT22;13887;57.196;-2.100;2022-09-21T19:36:53;15.67;78.80
22069;DHT22;13887;57.196;-2.100;2022-09-21T19:39:23;15.67;78.67
22069;DHT22;13887;57.196;-2.100;2022-09-21T19:44:44;15.66;78.81
22069;DHT22;13887;57.196;-2.100;2022-09-21T19:47:33;15.62;78.51
22069;DHT22;13887;57.196;-2.100;2022-09-21T19:50:10;15.61;78.95
22069;DHT22;13887;57.196;-2.100;2022-09-21T19:52:38;15.59;79.13
22069;DHT22;13887;57.196;-2.100;2022-09-21T19:55:12;15.60;79.04
22069;DHT22;13887;57.196;-2.100;2022-09-21T19:57:57;15.57;79.18
22069;DHT22;13887;57.196;-2.100;2022-09-21T20:00:44;15.57;79.32
22069;DHT22;13887;57.196;-2.100;2022-09-21T20:03:33;15.58;78.92
22069;DHT22;13887;57.196;-2.100;2022-09-21T20:06:43;15.55;79.01
22069;DHT22;13887;57.196;-2.100;2022-09-21T20:09:20;15.55;79.09
22069;DHT22;13887;57.196;-2.100;2022-09-21T20:12:08;15.55;79.49
22069;DHT22;13887;57.196;-2.100;2022-09-21T20:14:42;15.54;79.42
22069;DHT22;13887;57.196;-2.100;2022-09-21T20:17:20;15.56;79.19
22069;DHT22;13887;57.196;-2.100;2022-09-21T20:22:34;15.54;78.95
22069;DHT22;13887;57.196;-2.100;2022-09-21T20:27:46;15.56;78.94
22069;DHT22;13887;57.196;-2.100;2022-09-21T20:30:18;15.56;78.89
22069;DHT22;13887;57.196;-2.100;2022-09-21T20:32:53;15.56;78.77
22069;DHT22;13887;57.196;-2.100;2022-09-21T20:35:22;15.57;78.30